Time;durP1;ratioP1;P1;durP2;ratioP2;P2;SDS_P1;SDS_P2;PMS_P1;PMS_P2;Temp;Humidity;BMP_temperature;BMP_pressure;BME280_temperature;BME280_humidity;BME280_pressure;Samples;Min_cycle;Max_cycle;Signal;HPM_P1;HPM_P2
2023/06/20 00:00:34;;;;;;;6.20;4.63;;;21.10;87.90;;;;;;5013031;28;20135;-73
2023/06/20 00:03:00;;;;;;;7.03;5.15;;;21.10;88.00;;;;;;5018402;28;20439;-73
2023/06/20 00:05:26;;;;;;;7.70;4.88;;;21.20;87.50;;;;;;4999938;28;20084;-73
2023/06/20 00:07:54;;;;;;;6.43;4.80;;;21.20;87.50;;;;;;5016813;28;20030;-73
2023/06/20 00:10:19;;;;;;;6.10;4.25;;;21.20;87.70;;;;;;5016671;28;20029;-74
2023/06/20 00:12:45;;;;;;;6.85;4.13;;;21.20;87.20;;;;;;5018522;28;20026;-73
2023/06/20 00:15:10;;;;;;;10.15;4.82;;;21.30;86.70;;;;;;5017151;28;20022;-73
2023/06/20 00:17:36;;;;;;;7.68;5.65;;;21.30;88.00;;;;;;5016170;28;20026;-73
2023/06/20 00:20:05;;;;;;;7.25;4.95;;;20.90;90.60;;;;;;5009200;28;20053;-73
2023/06/20 00:22:34;;;;;;;18.33;6.90;;;20.30;91.80;;;;;;5016654;28;20101;-74
2023/06/20 00:25:02;;;;;;;10.95;6.90;;;19.60;95.00;;;;;;4999251;28;20034;-76
2023/06/20 00:27:28;;;;;;;10.55;7.55;;;18.90;93.60;;;;;;4999632;28;20030;-76
2023/06/20 00:29:53;;;;;;;10.90;7.13;;;18.30;89.70;;;;;;5017165;28;20041;-75
2023/06/20 00:32:19;;;;;;;10.40;8.20;;;18.00;89.80;;;;;;5014751;28;20427;-76
2023/06/20 00:34:44;;;;;;;13.35;8.50;;;17.80;87.40;;;;;;5017273;28;20435;-76
2023/06/20 00:37:10;;;;;;;9.45;7.60;;;17.70;86.20;;;;;;5015406;28;20431;-76
2023/06/20 00:39:35;;;;;;;13.85;7.47;;;17.60;85.10;;;;;;5016863;28;20442;-75
2023/06/20 00:42:01;;;;;;;13.30;8.75;;;17.60;86.30;;;;;;5015043;28;20076;-75
2023/06/20 00:44:27;;;;;;;11.80;8.68;;;17.60;82.80;;;;;;5016682;28;20041;-75
2023/06/20 00:46:52;;;;;;;14.50;8.73;;;17.60;81.10;;;;;;5017284;28;20304;-75
2023/06/20 00:49:18;;;;;;;9.90;7.10;;;17.50;79.20;;;;;;5015636;28;20471;-74
2023/06/20 00:51:44;;;;;;;10.07;6.82;;;17.50;82.50;;;;;;5016018;28;20065;-74
2023/06/20 00:54:10;;;;;;;9.23;6.60;;;17.50;81.70;;;;;;5015821;28;20089;-74
2023/06/20 00:56:36;;;;;;;12.15;6.22;;;17.40;81.20;;;;;;5016180;28;20028;-75
2023/06/20 00:59:03;;;;;;;8.82;5.85;;;17.40;83.10;;;;;;5012263;28;20026;-75
2023/06/20 01:01:32;;;;;;;10.85;5.90;;;17.40;83.70;;;;;;5017537;28;20025;-75
2023/06/20 01:03:59;;;;;;;10.73;6.15;;;17.30;85.00;;;;;;4998935;28;20284;-75
2023/06/20 01:06:43;;;;;;;8.65;5.10;;;17.30;82.00;;;;;;5011773;28;20101;-74
2023/06/20 01:09:20;;;;;;;8.63;6.00;;;17.40;85.20;;;;;;5016197;28;20064;-75
2023/06/20 01:12:10;;;;;;;10.35;6.50;;;17.40;82.30;;;;;;5011346;28;20041;-74
2023/06/20 01:14:54;;;;;;;9.18;7.22;;;17.30;80.40;;;;;;5014313;28;20049;-74
2023/06/20 01:17:35;;;;;;;10.43;7.45;;;17.20;76.20;;;;;;5011340;28;20033;-74
2023/06/20 01:20:19;;;;;;;12.00;7.25;;;17.10;74.10;;;;;;5014283;28;20423;-74
2023/06/20 01:22:56;;;;;;;12.43;6.45;;;17.10;71.40;;;;;;5013824;28;20300;-74
2023/06/20 01:25:51;;;;;;;10.93;5.13;;;17.10;71.90;;;;;;5012695;28;20033;-72
2023/06/20 01:28:50;;;;;;;7.97;4.57;;;17.10;73.30;;;;;;5012030;28;20358;-73
2023/06/20 01:31:21;;;;;;;10.82;4.75;;;17.10;75.60;;;;;;5017150;28;20109;-73
2023/06/20 01:33:56;;;;;;;8.73;5.38;;;17.10;75.70;;;;;;5004710;28;20034;-74
2023/06/20 01:36:22;;;;;;;7.55;4.95;;;17.10;74.10;;;;;;5016423;28;20030;-73
2023/06/20 01:38:53;;;;;;;8.90;4.43;;;17.00;73.20;;;;;;5016289;28;20084;-73
2023/06/20 01:41:22;;;;;;;7.03;4.00;;;17.00;74.20;;;;;;5015810;28;20339;-73
2023/06/20 01:43:51;;;;;;;7.97;3.05;;;17.00;77.00;;;;;;5014508;28;20113;-73
2023/06/20 01:46:19;;;;;;;5.30;3.42;;;17.10;83.60;;;;;;5015789;28;20319;-73
2023/06/20 01:48:47;;;;;;;5.97;2.70;;;17.10;82.90;;;;;;5016607;28;20471;-73
2023/06/20 01:51:14;;;;;;;6.28;3.47;;;17.00;84.70;;;;;;5016045;28;20085;-73
2023/06/20 01:53:42;;;;;;;5.60;3.30;;;17.00;84.00;;;;;;5015366;28;20114;-73
2023/06/20 01:56:09;;;;;;;5.07;2.40;;;17.00;86.70;;;;;;5015726;28;20021;-73
2023/06/20 01:58:37;;;;;;;9.20;3.47;;;17.00;87.10;;;;;;5011898;28;20022;-73
2023/06/20 02:01:04;;;;;;;5.72;3.15;;;17.00;84.20;;;;;;5015469;28;20026;-73
2023/06/20 02:03:31;;;;;;;5.85;2.95;;;16.90;82.60;;;;;;5015979;28;20036;-73
2023/06/20 02:05:58;;;;;;;6.53;3.38;;;16.80;82.80;;;;;;5016294;28;20422;-73
2023/06/20 02:08:26;;;;;;;5.75;3.28;;;16.80;82.50;;;;;;5015279;28;20030;-73
2023/06/20 02:10:52;;;;;;;4.90;3.00;;;16.80;81.20;;;;;;5016326;28;20033;-73
2023/06/20 02:13:23;;;;;;;7.78;3.25;;;16.80;81.80;;;;;;4997991;28;20030;-73
2023/06/20 02:15:52;;;;;;;7.95;3.10;;;16.70;80.10;;;;;;5016031;28;20018;-73
2023/06/20 02:18:18;;;;;;;6.18;2.72;;;16.70;80.40;;;;;;5016363;28;20022;-73
2023/06/20 02:20:48;;;;;;;6.63;2.28;;;16.70;81.70;;;;;;5016272;28;20034;-73
2023/06/20 02:23:15;;;;;;;6.10;2.85;;;16.60;81.80;;;;;;5014535;28;20050;-73
2023/06/20 02:25:44;;;;;;;6.20;2.70;;;16.60;81.20;;;;;;5015991;28;20022;-73
2023/06/20 02:28:12;;;;;;;5.78;2.90;;;16.60;80.40;;;;;;4997516;28;20026;-73
2023/06/20 02:30:38;;;;;;;5.32;2.85;;;16.50;78.70;;;;;;5016142;28;20022;-73
2023/06/20 02:33:07;;;;;;;5.82;2.85;;;16.50;77.20;;;;;;4998209;28;20025;-73
2023/06/20 02:35:41;;;;;;;4.28;2.55;;;16.40;75.40;;;;;;5016299;28;20114;-73
2023/06/20 02:38:09;;;;;;;4.72;2.75;;;16.40;74.40;;;;;;5014918;28;20113;-73
2023/06/20 02:40:36;;;;;;;6.22;2.70;;;16.40;75.20;;;;;;5015260;28;20033;-73
2023/06/20 02:43:02;;;;;;;8.40;2.78;;;16.40;77.80;;;;;;5015230;28;20042;-73
2023/06/20 02:45:28;;;;;;;4.93;2.03;;;16.50;79.20;;;;;;5016079;28;20029;-73
2023/06/20 02:48:12;;;;;;;5.68;2.30;;;16.40;77.50;;;;;;4997245;28;20069;-73
2023/06/20 02:50:41;;;;;;;5.75;2.33;;;16.40;78.90;;;;;;5014242;28;20041;-73
2023/06/20 02:53:39;;;;;;;5.75;2.10;;;16.50;78.10;;;;;;5013251;28;20327;-73
2023/06/20 02:56:10;;;;;;;8.13;2.28;;;16.50;83.90;;;;;;4982163;28;20129;-73
2023/06/20 02:58:40;;;;;;;6.43;2.20;;;16.60;84.60;;;;;;4978073;28;20019;-73
2023/06/20 03:01:07;;;;;;;5.03;1.98;;;16.60;85.40;;;;;;4995761;28;20084;-73
2023/06/20 03:03:36;;;;;;;6.32;1.83;;;16.60;86.00;;;;;;5018687;28;20322;-73
2023/06/20 03:06:02;;;;;;;5.25;1.90;;;16.70;89.00;;;;;;5016769;28;20121;-73
2023/06/20 03:08:29;;;;;;;7.85;2.00;;;16.80;89.10;;;;;;5014240;28;20304;-73
2023/06/20 03:10:57;;;;;;;4.30;2.10;;;16.90;92.20;;;;;;4998309;28;20026;-73
2023/06/20 03:13:23;;;;;;;6.32;2.45;;;17.00;90.20;;;;;;5017088;28;20033;-73
2023/06/20 03:15:49;;;;;;;4.80;2.15;;;17.00;88.40;;;;;;5018499;28;20070;-73
2023/06/20 03:18:17;;;;;;;7.78;2.13;;;16.90;89.30;;;;;;5017947;28;20022;-73
2023/06/20 03:20:43;;;;;;;6.30;2.65;;;17.00;91.30;;;;;;5017680;28;20108;-73
2023/06/20 03:23:09;;;;;;;8.25;2.75;;;17.10;92.50;;;;;;5012524;28;20474;-74
2023/06/20 03:25:35;;;;;;;8.43;2.75;;;17.20;92.70;;;;;;5015783;28;20041;-74
2023/06/20 03:28:00;;;;;;;4.80;2.20;;;17.40;94.10;;;;;;5018445;28;20160;-74
2023/06/20 03:30:26;;;;;;;6.25;2.83;;;17.50;94.20;;;;;;5018673;28;20033;-73
2023/06/20 03:32:51;;;;;;;5.88;2.60;;;17.50;94.00;;;;;;5018789;28;20322;-74
2023/06/20 03:35:17;;;;;;;8.13;2.85;;;17.50;93.10;;;;;;5018362;28;20034;-73
2023/06/20 03:37:42;;;;;;;8.90;3.05;;;17.50;93.10;;;;;;5017233;28;20022;-73
2023/06/20 03:40:09;;;;;;;8.57;3.00;;;17.40;93.40;;;;;;5017661;28;20057;-74
2023/06/20 03:42:34;;;;;;;8.20;2.95;;;17.40;93.50;;;;;;5000750;28;20045;-73
2023/06/20 03:45:00;;;;;;;10.38;3.13;;;17.30;92.60;;;;;;5017186;28;20080;-73
2023/06/20 03:47:25;;;;;;;7.55;3.30;;;17.20;91.70;;;;;;5018309;28;20037;-74
2023/06/20 03:49:51;;;;;;;8.02;2.97;;;17.20;92.20;;;;;;5001027;28;20062;-73
2023/06/20 03:52:16;;;;;;;9.00;3.40;;;17.20;92.30;;;;;;5014746;28;20077;-73
2023/06/20 03:54:42;;;;;;;9.70;4.05;;;17.20;93.10;;;;;;5016124;28;20097;-73
2023/06/20 03:57:08;;;;;;;9.00;3.38;;;17.30;92.70;;;;;;5014872;28;20040;-73
2023/06/20 03:59:33;;;;;;;7.55;3.40;;;17.40;93.80;;;;;;5015946;28;20064;-73
2023/06/20 04:01:59;;;;;;;10.50;4.00;;;17.50;93.90;;;;;;5016972;28;20485;-73
2023/06/20 04:04:24;;;;;;;8.40;4.50;;;17.50;94.00;;;;;;5015974;28;20033;-73
2023/06/20 04:06:50;;;;;;;7.97;4.05;;;17.50;94.20;;;;;;5017620;28;20022;-73
2023/06/20 04:09:17;;;;;;;8.43;4.07;;;17.60;94.90;;;;;;5017088;28;20034;-73
2023/06/20 04:11:43;;;;;;;5.88;3.75;;;17.70;95.40;;;;;;5015086;28;20018;-73
2023/06/20 04:14:09;;;;;;;8.75;3.90;;;17.80;95.30;;;;;;5017484;28;20085;-73
2023/06/20 04:16:35;;;;;;;8.82;4.50;;;17.90;94.70;;;;;;5018544;28;20030;-73
2023/06/20 04:19:01;;;;;;;7.05;4.00;;;17.90;95.60;;;;;;5018402;28;20014;-73
2023/06/20 04:21:27;;;;;;;7.43;4.10;;;18.10;96.40;;;;;;5017146;28;20102;-73
2023/06/20 04:23:52;;;;;;;7.03;4.18;;;18.20;96.30;;;;;;5016955;28;20301;-73
2023/06/20 04:26:18;;;;;;;6.70;4.30;;;18.30;96.90;;;;;;5018362;28;20022;-73
2023/06/20 04:28:43;;;;;;;7.22;4.10;;;18.40;96.60;;;;;;5019319;28;20318;-73
2023/06/20 04:31:11;;;;;;;7.28;3.80;;;18.40;97.30;;;;;;5016630;28;20145;-73
2023/06/20 04:33:43;;;;;;;6.57;3.80;;;18.50;96.00;;;;;;5017035;28;20109;-72
2023/06/20 04:36:13;;;;;;;7.43;3.97;;;18.40;96.60;;;;;;5015827;28;20038;-72
2023/06/20 04:38:43;;;;;;;7.18;4.15;;;18.40;96.80;;;;;;5014248;28;20018;-72
2023/06/20 04:41:10;;;;;;;8.60;4.60;;;18.50;96.10;;;;;;5015836;28;20096;-73
2023/06/20 04:43:36;;;;;;;7.60;4.47;;;18.40;96.60;;;;;;5008969;28;20510;-72
2023/06/20 04:46:02;;;;;;;8.32;4.65;;;18.50;96.40;;;;;;4998227;28;20356;-72
2023/06/20 04:48:29;;;;;;;10.52;4.68;;;18.50;96.60;;;;;;5013739;28;20083;-73
2023/06/20 04:50:57;;;;;;;9.50;4.00;;;18.50;96.20;;;;;;5017895;28;20470;-73
2023/06/20 04:53:25;;;;;;;7.57;4.50;;;18.50;96.70;;;;;;5015592;28;20026;-72
2023/06/20 04:55:54;;;;;;;9.93;4.20;;;18.60;96.90;;;;;;5017797;28;20315;-72
2023/06/20 04:58:20;;;;;;;7.30;4.20;;;18.60;96.80;;;;;;5017575;28;20034;-73
2023/06/20 05:00:45;;;;;;;8.80;4.40;;;18.60;96.50;;;;;;5017470;28;20087;-72
2023/06/20 05:03:11;;;;;;;7.25;4.07;;;18.60;96.60;;;;;;5017092;28;20030;-72
2023/06/20 05:05:37;;;;;;;7.53;3.88;;;18.60;96.50;;;;;;5017570;28;20371;-73
2023/06/20 05:08:02;;;;;;;7.93;4.35;;;18.60;96.50;;;;;;5015109;28;20026;-72
2023/06/20 05:10:28;;;;;;;7.53;4.00;;;18.70;97.30;;;;;;5017519;28;20121;-73
2023/06/20 05:12:54;;;;;;;8.40;4.13;;;18.70;96.30;;;;;;5014378;28;20026;-73
2023/06/20 05:15:23;;;;;;;9.35;4.35;;;18.80;96.50;;;;;;5017194;28;20338;-73
2023/06/20 05:17:51;;;;;;;9.35;4.20;;;18.80;96.80;;;;;;5017352;28;20109;-72
2023/06/20 05:20:17;;;;;;;7.40;4.25;;;18.90;97.00;;;;;;5015907;28;20050;-73
2023/06/20 05:22:43;;;;;;;10.52;4.47;;;18.90;96.50;;;;;;5015520;28;20061;-72
2023/06/20 05:25:08;;;;;;;7.68;3.97;;;18.90;96.80;;;;;;5016880;28;20022;-72
2023/06/20 05:27:34;;;;;;;11.85;4.28;;;19.00;96.90;;;;;;5015542;28;20033;-73
2023/06/20 05:30:00;;;;;;;11.15;4.13;;;19.00;96.60;;;;;;5016027;28;20038;-73
2023/06/20 05:32:25;;;;;;;8.65;4.35;;;19.10;96.70;;;;;;4997735;28;20101;-72
2023/06/20 05:34:51;;;;;;;8.07;4.35;;;19.10;96.60;;;;;;5016367;28;20026;-73
2023/06/20 05:37:16;;;;;;;8.10;4.50;;;19.10;96.70;;;;;;5013946;28;20044;-73
2023/06/20 05:39:42;;;;;;;9.90;4.78;;;19.30;96.80;;;;;;5014117;28;20029;-72
2023/06/20 05:42:08;;;;;;;9.02;4.72;;;19.30;96.60;;;;;;5013435;28;20107;-73
2023/06/20 05:44:33;;;;;;;9.40;4.47;;;19.30;96.60;;;;;;5014504;28;20032;-73
2023/06/20 05:46:59;;;;;;;9.43;4.97;;;19.30;96.80;;;;;;5013492;28;20835;-73
2023/06/20 05:49:25;;;;;;;9.52;4.82;;;19.40;96.60;;;;;;5013913;28;20040;-73
2023/06/20 05:51:54;;;;;;;11.23;5.60;;;19.50;96.70;;;;;;5011724;28;20030;-72
2023/06/20 05:54:23;;;;;;;8.90;4.68;;;19.60;96.70;;;;;;5013545;28;20030;-73
2023/06/20 05:56:52;;;;;;;12.65;4.88;;;19.60;96.50;;;;;;5015237;28;20374;-72
2023/06/20 05:59:17;;;;;;;7.70;4.57;;;19.70;96.60;;;;;;5012838;28;20376;-73
2023/06/20 06:01:44;;;;;;;8.30;4.75;;;19.90;96.60;;;;;;5011110;28;20096;-73
2023/06/20 06:04:10;;;;;;;9.13;5.00;;;19.90;96.20;;;;;;5011172;28;20018;-73
2023/06/20 06:06:36;;;;;;;7.05;4.72;;;20.00;96.10;;;;;;5011080;28;20484;-74
2023/06/20 06:09:03;;;;;;;8.85;5.15;;;20.10;96.20;;;;;;4997373;28;20038;-73
2023/06/20 06:11:29;;;;;;;9.50;5.18;;;20.20;96.00;;;;;;5016379;28;20076;-72
2023/06/20 06:13:55;;;;;;;10.13;5.50;;;20.30;96.10;;;;;;5014503;28;20033;-73
2023/06/20 06:16:20;;;;;;;9.32;5.07;;;20.30;95.80;;;;;;5014395;28;20030;-72
2023/06/20 06:18:46;;;;;;;9.02;5.18;;;20.40;95.60;;;;;;4998967;28;20116;-72
2023/06/20 06:21:12;;;;;;;9.88;5.57;;;20.40;95.90;;;;;;5013016;28;20041;-73
2023/06/20 06:23:38;;;;;;;10.52;4.65;;;20.50;95.30;;;;;;5013472;28;20630;-72
2023/06/20 06:26:04;;;;;;;11.07;5.70;;;20.50;95.40;;;;;;5013953;28;20034;-73
2023/06/20 06:28:30;;;;;;;11.05;5.38;;;20.60;95.30;;;;;;5016305;28;20021;-72
2023/06/20 06:31:01;;;;;;;9.10;5.00;;;20.80;95.30;;;;;;5016148;28;20018;-73
2023/06/20 06:33:28;;;;;;;9.90;4.80;;;20.90;95.20;;;;;;5016153;28;20427;-73
2023/06/20 06:35:55;;;;;;;10.07;4.80;;;21.10;94.40;;;;;;5014647;28;20026;-72
2023/06/20 06:38:25;;;;;;;10.30;5.18;;;21.20;93.70;;;;;;5011163;28;20345;-73
2023/06/20 06:40:54;;;;;;;9.30;4.88;;;21.30;93.90;;;;;;5015907;28;20028;-72
2023/06/20 06:43:20;;;;;;;10.70;4.50;;;21.50;93.90;;;;;;4997711;28;20030;-73
2023/06/20 06:45:46;;;;;;;8.30;4.50;;;21.70;93.50;;;;;;5029206;28;20075;-73
2023/06/20 06:48:11;;;;;;;10.52;5.00;;;21.90;93.10;;;;;;5014746;28;20033;-72
2023/06/20 06:50:37;;;;;;;10.13;4.72;;;22.00;92.10;;;;;;5009823;28;20041;-73
2023/06/20 06:53:03;;;;;;;10.68;5.22;;;22.10;91.20;;;;;;5013214;28;20041;-73
2023/06/20 06:55:28;;;;;;;12.05;5.07;;;22.20;91.30;;;;;;5014434;28;20087;-73
2023/06/20 06:57:54;;;;;;;10.00;5.13;;;22.30;91.30;;;;;;5015947;28;20358;-73
2023/06/20 07:00:20;;;;;;;13.10;5.13;;;22.50;90.30;;;;;;5016234;28;20120;-72
2023/06/20 07:02:45;;;;;;;12.85;5.07;;;22.60;89.90;;;;;;5016028;28;20430;-73
2023/06/20 07:05:12;;;;;;;14.23;5.25;;;22.90;90.20;;;;;;5014773;28;20165;-73
2023/06/20 07:07:37;;;;;;;8.95;4.65;;;23.20;89.60;;;;;;5014927;28;20315;-73
2023/06/20 07:10:04;;;;;;;13.07;5.00;;;23.50;88.00;;;;;;5015748;28;20026;-73
2023/06/20 07:12:32;;;;;;;8.80;4.70;;;23.70;87.40;;;;;;5016017;28;20033;-73
2023/06/20 07:14:58;;;;;;;9.38;4.95;;;23.90;87.10;;;;;;5014736;28;20033;-73
2023/06/20 07:17:24;;;;;;;12.13;4.97;;;24.10;86.60;;;;;;5014139;28;20018;-73
2023/06/20 07:19:50;;;;;;;11.02;4.80;;;24.30;86.00;;;;;;5015392;28;20057;-73
2023/06/20 07:22:16;;;;;;;11.68;4.70;;;24.50;83.80;;;;;;5014564;28;20036;-73
2023/06/20 07:24:41;;;;;;;10.10;4.55;;;25.10;83.70;;;;;;5015736;28;20034;-73
2023/06/20 07:27:07;;;;;;;10.20;4.78;;;25.90;83.60;;;;;;5014536;28;20034;-72
2023/06/20 07:29:32;;;;;;;8.65;4.47;;;26.50;79.90;;;;;;5015679;28;20026;-72
2023/06/20 07:31:58;;;;;;;8.25;4.40;;;26.40;79.50;;;;;;5015656;28;20030;-72
2023/06/20 07:34:24;;;;;;;11.20;4.70;;;26.60;80.30;;;;;;5015697;28;20311;-72
2023/06/20 07:36:49;;;;;;;9.02;4.57;;;26.70;80.80;;;;;;5013733;28;20640;-72
2023/06/20 07:39:15;;;;;;;11.55;4.38;;;27.00;80.10;;;;;;5015508;28;20033;-73
2023/06/20 07:41:41;;;;;;;8.75;4.35;;;27.30;79.30;;;;;;5013775;28;20541;-73
2023/06/20 07:44:08;;;;;;;9.13;4.75;;;27.50;78.60;;;;;;5015645;28;20430;-73
2023/06/20 07:46:33;;;;;;;8.50;4.70;;;27.50;78.20;;;;;;5015459;28;20069;-73
2023/06/20 07:48:59;;;;;;;9.25;4.35;;;27.30;78.20;;;;;;5016329;28;20081;-73
2023/06/20 07:51:24;;;;;;;9.13;4.75;;;27.10;80.40;;;;;;5018658;28;20120;-73
2023/06/20 07:53:50;;;;;;;10.57;4.55;;;27.30;79.50;;;;;;5018431;28;20028;-73
2023/06/20 07:56:16;;;;;;;7.75;4.65;;;27.30;78.40;;;;;;5017722;28;20038;-73
2023/06/20 07:58:41;;;;;;;11.60;5.30;;;26.90;79.40;;;;;;5018307;28;20036;-73
2023/06/20 08:01:12;;;;;;;9.93;4.95;;;27.00;79.30;;;;;;5018974;28;20022;-73
2023/06/20 08:03:38;;;;;;;9.55;5.05;;;27.20;80.40;;;;;;5018853;28;20029;-73
2023/06/20 08:06:04;;;;;;;9.27;4.57;;;27.10;78.70;;;;;;5018977;28;20088;-73
2023/06/20 08:08:29;;;;;;;10.55;4.72;;;27.30;80.20;;;;;;5017530;28;20029;-73
2023/06/20 08:10:55;;;;;;;8.27;4.50;;;27.70;77.60;;;;;;5017966;28;20044;-73
2023/06/20 08:13:20;;;;;;;7.88;4.38;;;28.30;77.30;;;;;;5018976;28;20060;-73
2023/06/20 08:15:46;;;;;;;9.45;4.50;;;29.30;75.30;;;;;;5018743;28;20034;-73
2023/06/20 08:18:14;;;;;;;9.60;4.60;;;30.50;71.90;;;;;;5018598;28;20025;-73
2023/06/20 08:20:41;;;;;;;10.20;4.20;;;30.50;68.60;;;;;;5018617;28;20034;-73
2023/06/20 08:23:07;;;;;;;9.73;4.90;;;30.20;69.90;;;;;;5017176;28;20327;-73
2023/06/20 08:25:33;;;;;;;10.43;4.35;;;30.30;70.20;;;;;;5017006;28;20022;-73
2023/06/20 08:27:59;;;;;;;10.07;3.88;;;30.40;69.40;;;;;;5018313;28;20068;-73
2023/06/20 08:30:25;;;;;;;7.15;4.22;;;29.70;68.30;;;;;;5018380;28;20022;-73
2023/06/20 08:32:50;;;;;;;7.13;3.83;;;29.10;68.90;;;;;;5018426;28;20419;-73
2023/06/20 08:35:16;;;;;;;8.45;4.05;;;29.80;68.90;;;;;;5018294;28;20033;-73
2023/06/20 08:37:45;;;;;;;9.63;4.15;;;31.00;66.70;;;;;;5017267;28;20029;-74
2023/06/20 08:40:12;;;;;;;7.55;4.15;;;31.20;64.90;;;;;;5017619;28;20179;-73
2023/06/20 08:42:40;;;;;;;9.02;3.88;;;31.20;65.00;;;;;;5010086;28;20375;-74
2023/06/20 08:45:07;;;;;;;10.00;4.13;;;31.60;64.50;;;;;;5018264;28;20030;-74
2023/06/20 08:47:32;;;;;;;8.75;4.18;;;32.00;62.90;;;;;;5017984;28;20026;-73
2023/06/20 08:49:58;;;;;;;9.02;4.22;;;31.40;62.30;;;;;;5018060;28;20034;-74
2023/06/20 08:52:30;;;;;;;11.32;5.00;;;31.90;65.00;;;;;;5016763;28;20026;-74
2023/06/20 08:54:56;;;;;;;12.20;5.53;;;32.00;70.70;;;;;;5017931;28;20097;-74
2023/06/20 08:57:23;;;;;;;12.20;5.35;;;31.80;71.00;;;;;;5017342;28;20018;-74
2023/06/20 08:59:48;;;;;;;8.75;4.13;;;32.10;69.10;;;;;;5017540;28;20457;-74
2023/06/20 09:02:15;;;;;;;7.47;4.30;;;31.50;67.50;;;;;;5017734;28;20116;-74
2023/06/20 09:04:41;;;;;;;9.45;4.60;;;32.00;66.00;;;;;;5017659;28;20041;-74
2023/06/20 09:07:21;;;;;;;9.80;4.50;;;32.40;66.60;;;;;;5016450;28;20029;-74
2023/06/20 09:09:47;;;;;;;9.80;5.30;;;33.10;66.60;;;;;;5017511;28;20080;-74
2023/06/20 09:12:14;;;;;;;12.25;4.80;;;32.40;66.30;;;;;;5015245;28;20350;-74
2023/06/20 09:14:40;;;;;;;9.35;5.10;;;31.60;65.80;;;;;;5015613;28;20026;-74
2023/06/20 09:17:08;;;;;;;10.05;4.90;;;30.80;67.10;;;;;;5017516;28;20033;-73
2023/06/20 09:19:43;;;;;;;8.93;4.63;;;31.30;67.60;;;;;;5017235;28;20438;-74
2023/06/20 09:22:12;;;;;;;8.10;4.45;;;31.80;66.60;;;;;;5016227;28;20037;-74
2023/06/20 09:24:45;;;;;;;8.93;4.40;;;32.20;66.80;;;;;;5017293;28;20037;-74
2023/06/20 09:27:11;;;;;;;7.10;4.03;;;33.10;61.70;;;;;;5017195;28;20026;-73
2023/06/20 09:29:53;;;;;;;9.60;3.92;;;33.00;57.60;;;;;;5016066;28;20038;-74
2023/06/20 09:32:21;;;;;;;12.00;4.10;;;32.80;57.50;;;;;;5014206;28;20045;-74
2023/06/20 09:34:47;;;;;;;8.35;4.07;;;32.70;57.80;;;;;;5016995;28;20018;-74
2023/06/20 09:37:18;;;;;;;9.60;4.45;;;33.20;57.80;;;;;;5015940;28;20117;-73
2023/06/20 09:39:45;;;;;;;11.10;4.35;;;33.80;54.60;;;;;;5017255;28;20324;-73
2023/06/20 09:42:13;;;;;;;6.45;3.60;;;33.70;52.50;;;;;;5016801;28;20542;-73
2023/06/20 09:44:40;;;;;;;35.10;30.08;;;33.80;52.20;;;;;;5017150;28;20022;-73
2023/06/20 09:47:06;;;;;;;8.32;4.00;;;33.70;52.20;;;;;;5013473;28;20109;-73
2023/06/20 09:49:34;;;;;;;7.10;3.60;;;33.00;55.20;;;;;;5016256;28;20441;-74
2023/06/20 09:52:04;;;;;;;11.27;4.30;;;32.70;55.10;;;;;;4997770;28;20323;-73
2023/06/20 09:54:45;;;;;;;10.07;3.85;;;31.80;57.70;;;;;;5016829;28;20025;-73
2023/06/20 09:57:16;;;;;;;9.50;3.95;;;32.20;56.40;;;;;;5016891;28;20101;-73
2023/06/20 09:59:46;;;;;;;7.45;3.83;;;32.70;55.60;;;;;;5016983;28;20041;-73
2023/06/20 10:02:13;;;;;;;9.05;3.95;;;33.00;53.20;;;;;;5015106;28;20026;-73
2023/06/20 10:04:42;;;;;;;8.02;4.07;;;32.60;53.60;;;;;;5015823;28;20065;-73
2023/06/20 10:07:12;;;;;;;8.18;4.03;;;32.30;54.80;;;;;;5015593;28;20029;-73
2023/06/20 10:09:40;;;;;;;7.88;3.95;;;32.30;55.00;;;;;;5016392;28;20026;-73
2023/06/20 10:12:07;;;;;;;6.40;3.58;;;32.50;55.20;;;;;;5016199;28;20088;-73
2023/06/20 10:14:33;;;;;;;7.80;3.42;;;33.10;54.20;;;;;;5016543;28;20028;-74
2023/06/20 10:17:08;;;;;;;10.98;4.20;;;34.10;54.10;;;;;;5015957;28;20021;-73
2023/06/20 10:19:47;;;;;;;8.80;3.50;;;33.80;52.00;;;;;;5015372;28;20049;-73
2023/06/20 10:22:14;;;;;;;9.48;4.00;;;33.00;54.10;;;;;;5015234;28;20037;-72
2023/06/20 10:24:41;;;;;;;9.65;4.10;;;33.60;53.20;;;;;;5016445;28;20030;-72
2023/06/20 10:27:07;;;;;;;13.93;3.83;;;33.80;50.90;;;;;;5016487;28;20025;-71
2023/06/20 10:29:40;;;;;;;8.43;4.05;;;33.20;52.30;;;;;;5016300;28;20057;-71
2023/06/20 10:32:07;;;;;;;9.35;3.80;;;33.00;51.70;;;;;;5014961;28;20021;-72
2023/06/20 10:34:35;;;;;;;7.32;4.30;;;33.00;52.50;;;;;;4996702;28;20117;-73
2023/06/20 10:37:19;;;;;;;11.10;3.90;;;33.30;52.00;;;;;;5012908;28;20042;-72
2023/06/20 10:40:27;;;;;;;7.47;4.05;;;33.60;51.70;;;;;;5016181;28;20062;-73
2023/06/20 10:42:53;;;;;;;7.10;3.65;;;34.00;51.40;;;;;;4996180;28;20121;-73
2023/06/20 10:45:28;;;;;;;7.25;3.90;;;34.10;51.40;;;;;;4996673;28;20149;-73
2023/06/20 10:47:54;;;;;;;8.68;3.92;;;33.60;52.80;;;;;;5015162;28;20037;-73
2023/06/20 10:50:21;;;;;;;8.32;4.32;;;33.30;52.00;;;;;;5014146;28;20331;-73
2023/06/20 10:52:47;;;;;;;9.88;4.15;;;33.60;52.60;;;;;;5014233;28;20026;-73
2023/06/20 10:55:13;;;;;;;7.30;3.65;;;33.70;51.90;;;;;;5015052;28;20408;-73
2023/06/20 10:57:51;;;;;;;12.38;4.13;;;33.30;53.20;;;;;;5013360;28;20061;-73
2023/06/20 11:00:19;;;;;;;10.95;4.20;;;33.10;53.00;;;;;;5015347;28;20030;-73
2023/06/20 11:02:49;;;;;;;13.07;4.32;;;33.00;53.30;;;;;;5014086;28;20092;-73
2023/06/20 11:05:16;;;;;;;9.70;4.47;;;32.50;53.90;;;;;;5014757;28;20491;-73
2023/06/20 11:07:58;;;;;;;8.90;4.40;;;32.40;55.50;;;;;;5014465;28;20068;-73
2023/06/20 11:10:29;;;;;;;14.98;4.60;;;32.70;55.10;;;;;;5015187;28;20033;-73
2023/06/20 11:12:56;;;;;;;11.55;5.40;;;32.50;55.20;;;;;;5015210;28;20112;-73
2023/06/20 11:15:29;;;;;;;7.65;4.03;;;32.30;55.10;;;;;;5014242;28;20029;-73
2023/06/20 11:17:57;;;;;;;9.15;4.25;;;32.40;56.00;;;;;;5016018;28;20091;-74
2023/06/20 11:20:24;;;;;;;12.48;4.60;;;32.80;54.80;;;;;;5014207;28;20104;-73
2023/06/20 11:22:55;;;;;;;13.18;4.60;;;32.70;55.20;;;;;;5013881;28;20038;-73
2023/06/20 11:25:25;;;;;;;10.63;4.20;;;32.50;56.00;;;;;;5017009;28;20036;-73
2023/06/20 11:27:50;;;;;;;14.57;5.22;;;32.00;56.20;;;;;;5018980;28;20040;-73
2023/06/20 11:30:22;;;;;;;10.70;4.75;;;32.30;57.10;;;;;;5018204;28;20390;-73
2023/06/20 11:33:03;;;;;;;13.40;4.68;;;32.30;55.90;;;;;;5018349;28;20026;-74
2023/06/20 11:35:52;;;;;;;11.02;4.75;;;32.80;55.80;;;;;;5018111;28;20030;-73
2023/06/20 11:38:20;;;;;;;11.13;4.40;;;33.30;53.90;;;;;;5018185;28;20477;-73
2023/06/20 11:40:46;;;;;;;9.05;4.40;;;33.60;54.30;;;;;;5019238;28;20037;-73
2023/06/20 11:43:33;;;;;;;7.55;4.13;;;33.60;54.10;;;;;;5018437;28;20040;-73
2023/06/20 11:46:02;;;;;;;52.60;47.95;;;33.40;54.00;;;;;;5001967;28;20057;-73
2023/06/20 11:48:28;;;;;;;10.43;4.57;;;34.20;54.20;;;;;;5019157;28;20033;-73
2023/06/20 11:50:55;;;;;;;11.80;4.78;;;34.80;53.50;;;;;;5016921;28;20390;-73
2023/06/20 11:53:25;;;;;;;11.15;4.88;;;33.60;54.30;;;;;;5018003;28;20072;-73
2023/06/20 11:55:56;;;;;;;11.82;5.03;;;33.40;54.20;;;;;;5019136;28;20034;-73
2023/06/20 11:58:22;;;;;;;11.23;4.45;;;33.00;55.30;;;;;;5018281;28;20022;-74
2023/06/20 12:01:07;;;;;;;9.30;4.25;;;33.50;55.10;;;;;;5018891;28;20037;-73
2023/06/20 12:03:36;;;;;;;14.13;5.10;;;33.60;55.30;;;;;;5019023;28;20037;-73
2023/06/20 12:06:02;;;;;;;9.05;4.80;;;33.70;53.70;;;;;;5015104;28;20320;-74
2023/06/20 12:08:34;;;;;;;11.18;4.85;;;33.30;55.40;;;;;;5017275;28;20026;-73
2023/06/20 12:11:03;;;;;;;8.30;4.60;;;32.80;56.10;;;;;;5018838;28;20323;-74
2023/06/20 12:13:32;;;;;;;15.05;5.03;;;33.00;55.90;;;;;;5004488;28;20438;-74
2023/06/20 12:15:57;;;;;;;10.55;4.60;;;33.80;55.00;;;;;;5016762;28;20033;-74
2023/06/20 12:18:23;;;;;;;9.48;5.35;;;34.40;55.10;;;;;;5018021;28;20030;-73
2023/06/20 12:20:49;;;;;;;8.68;4.43;;;34.20;54.40;;;;;;5017223;28;20040;-74
2023/06/20 12:23:14;;;;;;;11.27;5.70;;;33.80;54.50;;;;;;5013145;28;20127;-74
2023/06/20 12:25:41;;;;;;;11.82;4.80;;;34.60;53.70;;;;;;5018530;28;20065;-74
2023/06/20 12:28:06;;;;;;;9.40;4.75;;;35.30;53.30;;;;;;5016946;28;20033;-74
2023/06/20 12:30:33;;;;;;;10.27;5.03;;;35.50;52.40;;;;;;4984971;28;20018;-74
2023/06/20 12:33:02;;;;;;;12.85;5.13;;;35.80;51.80;;;;;;5016445;28;20057;-74
2023/06/20 12:35:28;;;;;;;10.20;4.20;;;35.30;52.40;;;;;;5017083;28;20028;-74
2023/06/20 12:37:53;;;;;;;13.27;5.00;;;34.70;53.40;;;;;;5016062;28;20426;-74
2023/06/20 12:40:19;;;;;;;12.90;5.30;;;34.60;53.10;;;;;;5018275;28;20112;-74
2023/06/20 12:42:45;;;;;;;11.80;4.80;;;34.20;52.30;;;;;;5017147;28;20068;-74
2023/06/20 12:45:10;;;;;;;7.78;4.65;;;33.90;54.00;;;;;;5016630;28;20108;-75
2023/06/20 12:47:40;;;;;;;11.35;5.15;;;34.30;53.50;;;;;;5015849;28;20415;-74